地図

経路データ

SID SEASON NUMBER BASIN SUBBASIN NAME ISO_TIME NATURE LAT LON WMO_WIND WMO_PRES WMO_AGENCY TRACK_TYPE DIST2LAND LANDFALL IFLAG USA_AGENCY USA_ATCF_ID USA_LAT USA_LON USA_RECORD USA_STATUS USA_WIND USA_PRES USA_SSHS USA_R34_NE USA_R34_SE USA_R34_SW USA_R34_NW USA_R50_NE USA_R50_SE USA_R50_SW USA_R50_NW USA_R64_NE USA_R64_SE USA_R64_SW USA_R64_NW USA_POCI USA_ROCI USA_RMW USA_EYE TOKYO_LAT TOKYO_LON TOKYO_GRADE TOKYO_WIND TOKYO_PRES TOKYO_R50_DIR TOKYO_R50_LONG TOKYO_R50_SHORT TOKYO_R30_DIR TOKYO_R30_LONG TOKYO_R30_SHORT TOKYO_LAND CMA_LAT CMA_LON CMA_CAT CMA_WIND CMA_PRES HKO_LAT HKO_LON HKO_CAT HKO_WIND HKO_PRES NEWDELHI_LAT NEWDELHI_LON NEWDELHI_GRADE NEWDELHI_WIND NEWDELHI_PRES NEWDELHI_CI NEWDELHI_DP NEWDELHI_POCI REUNION_LAT REUNION_LON REUNION_TYPE REUNION_WIND REUNION_PRES REUNION_TNUM REUNION_CI REUNION_RMW REUNION_R34_NE REUNION_R34_SE REUNION_R34_SW REUNION_R34_NW REUNION_R50_NE REUNION_R50_SE REUNION_R50_SW REUNION_R50_NW REUNION_R64_NE REUNION_R64_SE REUNION_R64_SW REUNION_R64_NW BOM_LAT BOM_LON BOM_TYPE BOM_WIND BOM_PRES BOM_TNUM BOM_CI BOM_RMW BOM_R34_NE BOM_R34_SE BOM_R34_SW BOM_R34_NW BOM_R50_NE BOM_R50_SE BOM_R50_SW BOM_R50_NW BOM_R64_NE BOM_R64_SE BOM_R64_SW BOM_R64_NW BOM_ROCI BOM_POCI BOM_EYE BOM_POS_METHOD BOM_PRES_METHOD NADI_LAT NADI_LON NADI_CAT NADI_WIND NADI_PRES WELLINGTON_LAT WELLINGTON_LON WELLINGTON_WIND WELLINGTON_PRES DS824_LAT DS824_LON DS824_STAGE DS824_WIND DS824_PRES TD9636_LAT TD9636_LON TD9636_STAGE TD9636_WIND TD9636_PRES TD9635_LAT TD9635_LON TD9635_WIND TD9635_PRES TD9635_ROCI NEUMANN_LAT NEUMANN_LON NEUMANN_CLASS NEUMANN_WIND NEUMANN_PRES MLC_LAT MLC_LON MLC_CLASS MLC_WIND MLC_PRES USA_GUST BOM_GUST BOM_GUST_PER REUNION_GUST REUNION_GUST_PER USA_SEAHGT USA_SEARAD_NE USA_SEARAD_SE USA_SEARAD_SW USA_SEARAD_NW STORM_SPEED STORM_DIR
1930019S15153 1930 5 SP EA NOT_NAMED 1930-01-18 23:00:00 NR -15.1000 152.850 bom main 557 548 ______O___O___ -1 -14.9000 152.800 -15.3000 152.900 7 14 283
1930019S15153 1930 5 SP EA NOT_NAMED 1930-01-19 00:00:00 TS -15.0470 152.610 main 534 508 ______P__OP___ -1 -14.9087 152.539 -14.9000 152.600 TC -15.2588 152.686 7 14 276
1930019S15153 1930 5 SP EA NOT_NAMED 1930-01-19 03:00:00 TS -15.0040 151.895 main 508 489 ______P__PP___ -1 -14.9329 151.762 -14.9047 151.877 TC -15.1413 152.040 7 14 273
1930019S15153 1930 5 SP EA NOT_NAMED 1930-01-19 06:00:00 TS -14.9757 151.183 main 489 481 ______P__PP___ -1 -14.9537 151.003 -14.9085 151.163 TC -15.0482 151.377 7 14 272
1930019S15153 1930 5 SP EA NOT_NAMED 1930-01-19 09:00:00 TS -14.9608 150.479 main 481 481 ______P__PP___ -1 -14.9707 150.280 -14.9127 150.471 TC -14.9989 150.685 7 14 271
1930019S15153 1930 5 SP EA NOT_NAMED 1930-01-19 11:00:00 TS -14.9655 150.017 main 481 473 ______P__PO___ -1 -14.9799 149.824 -14.9166 150.027 TC -15.0000 150.200 7 13 269
1930019S15153 1930 5 SP EA NOT_NAMED 1930-01-19 12:00:00 TS -14.9718 149.789 main 473 409 ______P__PP___ -1 -14.9839 149.605 -14.9190 149.811 TC -15.0125 149.950 7 13 267
1930019S15153 1930 5 SP EA NOT_NAMED 1930-01-19 15:00:00 TS -15.0041 149.125 main 398 334 ______P__PP___ -1 -14.9932 148.996 -14.9291 149.193 TC -15.0899 149.187 7 12 266
1930019S15153 1930 5 SP EA NOT_NAMED 1930-01-19 18:00:00 TS -15.0492 148.518 main 334 280 ______P__PP___ -1 -14.9987 148.466 -14.9447 148.628 TC -15.2042 148.459 7 11 265
1930019S15153 1930 5 SP EA NOT_NAMED 1930-01-19 21:00:00 TS -15.0985 147.996 main 280 247 ______P__PP___ -1 -15.0006 148.030 -14.9677 148.127 TC -15.3270 147.831 7 9 264
1930019S15153 1930 5 SP EA NOT_NAMED 1930-01-19 23:00:00 TS -15.1294 147.711 bom main 247 237 ______O__PO___ -1 -15.0000 147.800 -14.9881 147.833 TC -15.4000 147.500 7 8 264
1930019S15153 1930 5 SP EA NOT_NAMED 1930-01-20 00:00:00 TS -15.1403 147.596 main 237 204 ______P__OP___ -1 -14.9992 147.704 -15.0000 147.700 TC -15.4216 147.383 7 6 263
1930019S15153 1930 5 SP EA NOT_NAMED 1930-01-20 03:00:00 TS -15.1724 147.328 main 204 193 ______P__PP___ -1 -14.9982 147.482 -15.0434 147.353 TC -15.4755 147.150 7 4 261
1930019S15153 1930 5 SP EA NOT_NAMED 1930-01-20 06:00:00 TS -15.2091 147.146 main 182 171 ______P__PP___ -1 -15.0070 147.330 -15.0999 147.073 TC -15.5205 147.035 7 3 255
1930019S15153 1930 5 SP EA NOT_NAMED 1930-01-20 09:00:00 TS -15.2573 147.005 main 171 160 ______P__PP___ -1 -15.0353 147.211 -15.1710 146.842 TC -15.5656 146.962 7 3 248
1930019S15153 1930 5 SP EA NOT_NAMED 1930-01-20 11:00:00 TS -15.2990 146.913 main 160 160 ______P__PO___ -1 -15.0696 147.132 -15.2273 146.707 TC -15.6000 146.900 7 3 246
1930019S15153 1930 5 SP EA NOT_NAMED 1930-01-20 12:00:00 TS -15.3217 146.858 main 160 139 ______P__PP___ -1 -15.0924 147.088 -15.2584 146.643 TC -15.6142 146.845 7 4 245
1930019S15153 1930 5 SP EA NOT_NAMED 1930-01-20 15:00:00 TS -15.4035 146.682 main 139 120 ______P__PP___ -1 -15.1879 146.923 -15.3636 146.456 TC -15.6592 146.667 7 4 243
1930019S15153 1930 5 SP EA NOT_NAMED 1930-01-20 18:00:00 TS -15.5130 146.468 main 120 91 ______P__PP___ -1 -15.3310 146.681 -15.4880 146.266 TC -15.7201 146.458 7 5 242
1930019S15153 1930 5 SP EA NOT_NAMED 1930-01-20 21:00:00 TS -15.6589 146.193 main 87 63 ______P__PP___ -1 -15.5309 146.322 -15.6330 146.053 TC -15.8128 146.203 7 7 241
1930019S15153 1930 5 SP EA NOT_NAMED 1930-01-20 23:00:00 TS -15.7806 145.963 996 bom main 63 54 ______O__PO___ -1 -15.7000 146.000 996 4 -15.7418 145.890 TC -15.9000 146.000 7 8 241
1930019S15153 1930 5 SP EA NOT_NAMED 1930-01-21 00:00:00 TS -15.8499 145.830 main 44 15 ______P__OP___ -1 -15.7972 145.804 -15.8000 145.800 TC 35 996 -15.9525 145.885 7 9 242
1930019S15153 1930 5 SP EA NOT_NAMED 1930-01-21 02:00:00 TS -15.9993 145.545 bom main 10 0 ______O__PP___ -1 -16.0000 145.400 -15.9239 145.601 TC -16.0740 145.633 7 9 241
1930019S15153 1930 5 SP EA NOT_NAMED 1930-01-21 03:00:00 TS -16.0759 145.400 main 0 0 ______P__PP___ -1 -16.0962 145.209 -15.9894 145.493 TC -16.1420 145.497 7 10 241
1930019S15153 1930 5 SP EA NOT_NAMED 1930-01-21 06:00:00 TS -16.3130 144.956 main 0 0 ______P__PP___ -1 -16.3705 144.673 -16.1989 145.134 TC -16.3696 145.061 7 10 241
1930019S15153 1930 5 SP EA NOT_NAMED 1930-01-21 09:00:00 TS -16.5577 144.507 main 0 0 ______P__PP___ -1 -16.6249 144.186 -16.4252 144.732 TC -16.6229 144.604 7 10 240
1930019S15153 1930 5 SP EA NOT_NAMED 1930-01-21 11:00:00 TS -16.7228 144.209 main 0 0 ______P__PO___ -1 -16.7844 143.885 -16.5839 144.442 TC -16.8000 144.300 7 10 240
1930019S15153 1930 5 SP EA NOT_NAMED 1930-01-21 12:00:00 TS -16.8046 144.062 main 0 0 ______P__PP___ -1 -16.8613 143.742 -16.6652 144.291 TC -16.8874 144.152 7 10 240
1930019S15153 1930 5 SP EA NOT_NAMED 1930-01-21 15:00:00 TS -17.0529 143.621 main 0 0 ______P__PP___ -1 -17.0812 143.337 -16.9158 143.821 TC -17.1618 143.706 7 10 239
1930019S15153 1930 5 SP EA NOT_NAMED 1930-01-21 18:00:00 TS -17.3016 143.187 main 0 0 ______P__PP___ -1 -17.2864 142.964 -17.1738 143.327 TC -17.4444 143.269 7 10 239
1930019S15153 1930 5 SP EA NOT_NAMED 1930-01-21 21:00:00 TS -17.5558 142.759 main 0 0 ______P__PP___ -1 -17.4785 142.618 -17.4362 142.818 TC -17.7229 142.855 7 9 237
1930019S15153 1930 5 SP EA NOT_NAMED 1930-01-21 23:00:00 TS -17.7224 142.495 bom main 0 0 ______O__PO___ -1 -17.6000 142.400 -17.6121 142.473 TC -17.9000 142.600 7 9 236
1930019S15153 1930 5 SP EA NOT_NAMED 1930-01-22 00:00:00 TS -17.8047 142.379 main 0 0 ______P__OP___ -1 -17.6589 142.294 -17.7000 142.300 TC -17.9766 142.484 7 7 234
1930019S15153 1930 5 SP EA NOT_NAMED 1930-01-22 03:00:00 NR -18.0113 142.076 main 0 0 ______P___P___ -1 -17.8291 141.986 TC -18.1935 142.165 7 7 235
1930019S15153 1930 5 SP EA NOT_NAMED 1930-01-22 06:00:00 NR -18.1981 141.783 main 0 0 ______P___P___ -1 -17.9905 141.693 TC -18.4057 141.874 7 7 235
1930019S15153 1930 5 SP EA NOT_NAMED 1930-01-22 09:00:00 NR -18.3882 141.502 main 0 0 ______P___P___ -1 -18.1443 141.412 TC -18.6321 141.592 7 7 234
1930019S15153 1930 5 SP EA NOT_NAMED 1930-01-22 11:00:00 NR -18.5216 141.315 main 0 0 ______P___O___ -1 -18.2432 141.231 TC -18.8000 141.400 7 7 232
1930019S15153 1930 5 SP EA NOT_NAMED 1930-01-22 12:00:00 NR -18.5914 141.221 main 0 0 ______P___P___ -1 -18.2918 141.142 TC -18.8909 141.301 7 7 231
1930019S15153 1930 5 SP EA NOT_NAMED 1930-01-22 15:00:00 NR -18.8119 140.935 main 0 0 ______P___P___ -1 -18.4344 140.879 TC -19.1895 140.990 7 7 230
1930019S15153 1930 5 SP EA NOT_NAMED 1930-01-22 18:00:00 NR -19.0455 140.643 main 0 0 ______P___P___ -1 -18.5733 140.622 TC -19.5178 140.664 7 7 229
1930019S15153 1930 5 SP EA NOT_NAMED 1930-01-22 21:00:00 NR -19.2871 140.348 main 0 0 ______P___P___ -1 -18.7097 140.368 TC -19.8644 140.328 7 7 229
1930019S15153 1930 5 SP EA NOT_NAMED 1930-01-22 23:00:00 NR -19.4500 140.150 bom main 0 ______O___O___ -1 -18.8000 140.200 TC -20.1000 140.100 7 7 229

デジタル台風データ・検索

IBTrACS Databaseについて

本データベースは、米国NOAAが公開する1842年以降の世界の熱帯低気圧のベストトラックデータアーカイブInternational Best Track Archive for Climate Stewardship (IBTrACS)を、ウェブで閲覧しやすい形式に変換したものです。

最終更新日:2021-12-06